createdAt,value
2018-02-21T00:03:57.748Z,22.63
2018-02-21T00:08:58.720Z,23.77
2018-02-21T00:14:00.430Z,24.67
2018-02-21T00:19:01.391Z,24.93
2018-02-21T00:24:03.110Z,24.37
2018-02-21T00:29:04.071Z,26.70
2018-02-21T00:34:05.783Z,24.90
2018-02-21T00:39:07.598Z,26.30
2018-02-21T00:44:08.519Z,25.97
2018-02-21T00:49:09.487Z,24.20
2018-02-21T00:54:10.460Z,25.00
2018-02-21T00:59:11.443Z,23.83
2018-02-21T01:04:12.421Z,23.70
2018-02-21T01:09:13.391Z,23.43
2018-02-21T01:14:14.359Z,24.20
2018-02-21T01:19:15.347Z,24.10
2018-02-21T01:24:16.329Z,24.83
2018-02-21T01:29:17.302Z,22.50
2018-02-21T01:34:19.032Z,25.57
2018-02-21T01:39:20.000Z,22.07
2018-02-21T01:44:20.985Z,23.70
2018-02-21T01:49:21.977Z,24.73
2018-02-21T01:54:22.992Z,24.50
2018-02-21T01:59:23.992Z,24.90
2018-02-21T02:04:24.992Z,26.33
2018-02-21T02:09:26.743Z,25.43
2018-02-21T02:14:27.732Z,27.10
2018-02-21T02:19:28.768Z,26.77
2018-02-21T02:24:29.752Z,26.23
2018-02-21T02:29:30.743Z,26.40
2018-02-21T02:34:31.743Z,26.10
2018-02-21T02:39:45.237Z,25.87
2018-02-21T02:44:46.229Z,27.37
2018-02-21T02:49:47.217Z,26.97
2018-02-21T02:54:48.215Z,26.53
2018-02-21T02:59:49.963Z,25.63
2018-02-21T03:04:50.959Z,24.80
2018-02-21T03:09:51.951Z,25.40
2018-02-21T03:14:52.943Z,27.20
2018-02-21T03:19:53.944Z,26.03
2018-02-21T03:24:55.684Z,27.43
2018-02-21T03:29:56.697Z,27.10
2018-02-21T03:34:57.676Z,27.10
2018-02-21T03:39:58.699Z,29.80
2018-02-21T03:45:00.432Z,28.70
2018-02-21T03:50:01.674Z,29.30
2018-02-21T03:55:02.672Z,28.60
2018-02-21T04:00:04.412Z,31.17
2018-02-21T04:05:05.642Z,30.43
2018-02-21T04:10:06.615Z,30.37
2018-02-21T04:15:07.619Z,30.47
2018-02-21T04:20:09.344Z,30.07
2018-02-21T04:25:10.327Z,30.20
2018-02-21T04:30:11.644Z,30.50
2018-02-21T04:35:12.647Z,30.30
2018-02-21T04:40:13.880Z,32.27
2018-02-21T04:45:14.879Z,35.97
2018-02-21T04:50:16.183Z,35.00
2018-02-21T05:00:57.742Z,33.47
2018-02-21T05:05:58.740Z,33.77
2018-02-21T05:10:59.724Z,31.57
2018-02-21T05:16:01.039Z,33.00
2018-02-21T05:21:02.032Z,31.23
2018-02-21T05:26:03.255Z,34.10
2018-02-21T05:31:04.255Z,32.87
2018-02-21T05:36:05.303Z,33.60
2018-02-21T05:41:06.311Z,32.97
2018-02-21T05:46:08.048Z,35.50
2018-02-21T05:51:09.044Z,35.33
2018-02-21T05:56:10.056Z,35.47
2018-02-21T06:01:11.069Z,36.63
2018-02-21T06:06:12.073Z,41.60
2018-02-21T06:11:13.092Z,38.13
2018-02-21T06:16:29.041Z,37.27
2018-02-21T06:21:30.780Z,34.77
2018-02-21T06:26:31.782Z,37.67
2018-02-21T06:31:32.778Z,34.10
2018-02-21T06:36:33.779Z,38.00
2018-02-21T06:41:34.806Z,32.70
2018-02-21T06:46:35.817Z,33.60
2018-02-21T06:51:36.836Z,34.17
2018-02-21T06:56:37.831Z,34.20
2018-02-21T07:01:39.559Z,31.27
2018-02-21T07:06:40.570Z,32.53
2018-02-21T07:11:41.571Z,32.87
2018-02-21T07:16:42.569Z,34.97
2018-02-21T07:21:43.560Z,35.47
2018-02-21T07:26:45.309Z,34.43
2018-02-21T07:31:46.317Z,39.43
2018-02-21T07:36:47.319Z,32.87
2018-02-21T07:41:49.079Z,33.40
2018-02-21T07:46:50.083Z,34.50
2018-02-21T07:51:51.092Z,32.77
2018-02-21T07:56:52.853Z,35.90
2018-02-21T08:01:53.860Z,33.27
2018-02-21T08:06:54.855Z,33.10
2018-02-21T08:11:56.591Z,32.97
2018-02-21T08:16:57.609Z,33.83
2018-02-21T08:21:58.615Z,29.73
2018-02-21T08:26:59.592Z,32.20
2018-02-21T08:32:00.596Z,33.30
2018-02-21T08:37:02.332Z,28.60
2018-02-21T08:42:03.332Z,29.50
2018-02-21T08:47:04.358Z,32.00
2018-02-21T08:52:06.131Z,28.60
2018-02-21T08:57:07.139Z,30.20
2018-02-21T09:02:08.872Z,31.13
2018-02-21T09:07:09.879Z,29.27
2018-02-21T09:12:10.895Z,27.30
2018-02-21T09:17:12.628Z,28.13
2018-02-21T09:22:13.620Z,30.00
2018-02-21T09:27:14.609Z,27.43
2018-02-21T09:32:15.648Z,26.80
2018-02-21T09:37:16.664Z,28.13
2018-02-21T09:42:17.662Z,28.20
2018-02-21T09:47:18.686Z,26.77
2018-02-21T09:52:19.694Z,29.40
2018-02-21T09:57:20.731Z,25.30
2018-02-21T10:02:21.732Z,25.17
2018-02-21T10:07:23.483Z,26.83
2018-02-21T10:12:24.483Z,27.60
2018-02-21T10:17:25.486Z,25.47
2018-02-21T10:22:26.483Z,26.97
2018-02-21T10:27:27.501Z,24.70
2018-02-21T10:32:28.523Z,25.07
2018-02-21T10:37:29.515Z,22.33
2018-02-21T10:42:30.519Z,22.97
2018-02-21T10:47:32.254Z,20.70
2018-02-21T10:52:33.251Z,22.50
2018-02-21T10:57:34.252Z,21.70
2018-02-21T11:02:35.248Z,21.03
2018-02-21T11:07:37.014Z,20.13
2018-02-21T11:12:38.012Z,16.57
2018-02-21T11:17:39.017Z,20.77
2018-02-21T11:22:39.996Z,19.37
2018-02-21T11:27:41.003Z,20.03
2018-02-21T11:32:42.744Z,19.83
2018-02-21T11:37:43.745Z,19.23
2018-02-21T11:42:44.746Z,18.63
2018-02-21T11:47:45.737Z,20.23
2018-02-21T11:52:46.731Z,16.87
2018-02-21T11:57:48.477Z,18.20
2018-02-21T12:02:49.484Z,19.37
2018-02-21T12:07:50.498Z,17.50
2018-02-21T12:12:52.228Z,19.20
2018-02-21T12:17:53.215Z,18.70
2018-02-21T12:22:54.216Z,18.00
2018-02-21T12:27:55.204Z,19.00
2018-02-21T12:32:56.991Z,18.70
2018-02-21T12:37:57.987Z,18.40
2018-02-21T12:42:58.976Z,20.40
2018-02-21T12:47:59.971Z,15.30
2018-02-21T12:53:01.188Z,18.83
2018-02-21T12:58:02.916Z,17.50
2018-02-21T13:03:03.912Z,17.77
2018-02-21T13:08:04.899Z,17.80
2018-02-21T13:13:05.891Z,15.63
2018-02-21T13:18:06.881Z,17.53
2018-02-21T13:23:07.888Z,16.87
2018-02-21T13:28:09.635Z,18.20
2018-02-21T13:33:10.646Z,17.30
2018-02-21T13:38:11.643Z,18.07
2018-02-21T13:43:12.644Z,15.10
2018-02-21T13:48:14.400Z,16.40
2018-02-21T13:53:15.403Z,16.93
2018-02-21T13:58:17.152Z,15.53
2018-02-21T14:03:18.163Z,15.77
2018-02-21T14:08:19.188Z,14.77
2018-02-21T14:13:20.944Z,18.37
2018-02-21T14:18:21.940Z,14.80
2018-02-21T14:23:22.946Z,16.87
2018-02-21T14:28:24.667Z,15.87
2018-02-21T14:33:25.668Z,16.67
2018-02-21T14:38:26.671Z,16.77
2018-02-21T14:43:27.681Z,16.40
2018-02-21T14:48:28.672Z,14.70
2018-02-21T14:53:29.668Z,15.90
2018-02-21T14:58:31.424Z,14.20
2018-02-21T15:03:39.352Z,15.37
2018-02-21T15:08:40.339Z,13.47
2018-02-21T15:13:41.327Z,15.80
2018-02-21T15:18:42.336Z,15.00
2018-02-21T15:23:43.323Z,13.00
2018-02-21T15:28:44.328Z,14.70
2018-02-21T15:33:46.067Z,11.40
2018-02-21T15:38:47.142Z,13.23
2018-02-21T15:43:48.072Z,13.93
2018-02-21T15:48:49.070Z,12.73
2018-02-21T15:53:57.812Z,13.83
2018-02-21T15:58:58.806Z,13.20
2018-02-21T16:03:59.800Z,12.80
2018-02-21T16:09:01.520Z,12.27
2018-02-21T16:14:02.508Z,14.43
2018-02-21T16:19:03.539Z,14.30
2018-02-21T16:24:04.537Z,18.50
2018-02-21T16:29:05.562Z,15.20
2018-02-21T16:34:07.265Z,15.30
2018-02-21T16:39:08.265Z,13.90
2018-02-21T16:44:09.290Z,12.20
2018-02-21T16:49:10.253Z,13.73
2018-02-21T16:54:15.145Z,13.30
2018-02-21T16:59:16.160Z,13.60
2018-02-21T17:04:17.226Z,12.67
2018-02-21T17:09:18.963Z,13.90
2018-02-21T17:14:19.972Z,14.40
2018-02-21T17:19:21.966Z,14.43
2018-02-21T17:24:22.960Z,14.57
2018-02-21T17:29:23.959Z,13.80
2018-02-21T17:34:24.977Z,15.33
2018-02-21T17:39:26.053Z,13.57
2018-02-21T17:44:28.798Z,15.30
2018-02-21T17:49:30.131Z,14.80
2018-02-21T17:54:31.128Z,15.50
2018-02-21T17:59:32.125Z,15.97
2018-02-21T18:04:33.144Z,16.07
2018-02-21T18:09:34.140Z,15.73
2018-02-21T18:14:35.147Z,16.77
2018-02-21T18:19:36.164Z,15.33
2018-02-21T18:24:37.903Z,16.50
2018-02-21T18:29:38.915Z,18.63
2018-02-21T18:34:39.939Z,14.00
2018-02-21T18:39:40.944Z,18.13
2018-02-21T18:44:41.931Z,16.80
2018-02-21T18:49:42.937Z,17.40
2018-02-21T18:54:43.927Z,17.60
2018-02-21T18:59:44.908Z,17.60
2018-02-21T19:04:45.928Z,17.97
2018-02-21T19:09:48.310Z,18.27
2018-02-21T19:14:51.354Z,17.97
2018-02-21T19:19:52.593Z,19.33
2018-02-21T19:24:54.398Z,20.47
2018-02-21T19:29:55.400Z,19.57
2018-02-21T19:34:56.381Z,21.17
2018-02-21T19:39:57.355Z,20.53
2018-02-21T19:44:58.336Z,22.40
2018-02-21T19:49:59.316Z,25.10
2018-02-21T19:55:00.316Z,23.30
2018-02-21T20:00:01.455Z,23.60
2018-02-21T20:05:03.180Z,24.67
2018-02-21T20:10:04.167Z,23.40
2018-02-21T20:15:05.152Z,22.47
2018-02-21T20:20:06.204Z,21.27
2018-02-21T20:25:08.020Z,22.60
2018-02-21T20:30:09.036Z,20.60
2018-02-21T20:35:10.293Z,21.20
2018-02-21T20:40:11.279Z,21.30
2018-02-21T20:45:12.280Z,23.17
2018-02-21T20:50:13.276Z,21.53
2018-02-21T20:55:14.271Z,21.77
2018-02-21T21:00:15.311Z,22.60
2018-02-21T21:05:16.440Z,21.67
2018-02-21T21:10:17.440Z,20.30
2018-02-21T21:15:19.156Z,21.83
2018-02-21T21:20:20.151Z,13.63
2018-02-21T21:25:28.165Z,22.80
2018-02-21T21:30:29.156Z,20.90
2018-02-21T21:35:30.911Z,21.77
2018-02-21T21:40:31.911Z,21.63
2018-02-21T21:45:32.919Z,21.00
2018-02-21T21:50:34.664Z,21.30
2018-02-21T21:55:35.664Z,19.60
2018-02-21T22:00:36.648Z,22.60
2018-02-21T22:05:37.648Z,20.30
2018-02-21T22:10:38.635Z,20.67
2018-02-21T22:15:39.636Z,22.27
2018-02-21T22:20:40.655Z,19.93
2018-02-21T22:25:41.667Z,21.33
2018-02-21T22:30:42.659Z,21.73
2018-02-21T22:35:43.654Z,21.40
2018-02-21T22:40:44.648Z,21.60
2018-02-21T22:45:46.376Z,18.50
2018-02-21T22:50:47.361Z,17.17
2018-02-21T22:55:48.356Z,21.97
2018-02-21T23:00:49.368Z,20.97
2018-02-21T23:05:50.375Z,21.80
2018-02-21T23:10:52.117Z,21.83
2018-02-21T23:15:53.103Z,20.43
2018-02-21T23:20:54.104Z,21.80
2018-02-21T23:25:55.090Z,21.43
2018-02-21T23:30:56.076Z,21.40
2018-02-21T23:35:57.065Z,23.30
2018-02-21T23:40:58.051Z,22.43
2018-02-21T23:45:59.035Z,22.50
2018-02-21T23:51:00.025Z,23.53
2018-02-21T23:56:01.024Z,20.90
